N858PC LLHA-LLER
Flight info
| Callsign | N858PC |
|---|---|
| Flight time | 1h 43m |
| Altitude | 4000 |
| Route | GALIM DAROM HOTRM BOREN FRDIS SDTYM OLGAH PELEG VINGT SFAIM APOLN ARENA HTZUK RIDNG ROKCH PARDS LLBG MRISN NTAIM BOVED NAGID YAVNE ZASHD NMASD ZDAFA NITZA ASKLN GVARM BHAIL BKAMA ZLHAV GORAL NCITY OMMER OHLIM HOVAV NEGEV TLLIM BOKER OVDAT RUHOT MESAR ZZHOR BMNUH YAHEL KTORA YOTVT SAMAR BRORA EILAT BRORA |
| Aircraft | BE36/L-VD/A |
Departure
| Time | 2026-04-26 10:41 |
|---|---|
| Airport | Uri Michaeli Haifa International Airport (LLHA) |
Arrival
| Time | 2026-04-26 12:25 |
|---|---|
| Airport | Ramon International Airport (LLER) |
| Time | Latitude | Longitude | Altitude | Speed | Heading |
|---|---|---|---|---|---|
| 2026-04-26 10:16 | 32.81535 | 35.04336 | 22 ft | 0 kts | 78° |
| 2026-04-26 10:18 | 32.81229 | 35.04160 | 19 ft | 0 kts | 78° |
| 2026-04-26 10:35 | 32.81229 | 35.04170 | 19 ft | 5 kts | 100° |
| 2026-04-26 10:36 | 32.81185 | 35.04196 | 20 ft | 6 kts | 162° |
| 2026-04-26 10:36 | 32.81167 | 35.04205 | 20 ft | 5 kts | 146° |
| 2026-04-26 10:36 | 32.81158 | 35.04217 | 20 ft | 0 kts | 108° |
| 2026-04-26 10:38 | 32.81158 | 35.04220 | 20 ft | 3 kts | 104° |
| 2026-04-26 10:39 | 32.81157 | 35.04237 | 20 ft | 0 kts | 74° |
| 2026-04-26 10:40 | 32.81158 | 35.04238 | 20 ft | 2 kts | 74° |
| 2026-04-26 10:40 | 32.81161 | 35.04303 | 21 ft | 14 kts | 124° |
| 2026-04-26 10:40 | 32.81036 | 35.04365 | 21 ft | 23 kts | 156° |
| 2026-04-26 10:40 | 32.80933 | 35.04421 | 22 ft | 6 kts | 211° |
| 2026-04-26 10:41 | 32.81013 | 35.04375 | 21 ft | 46 kts | 338° |
| 2026-04-26 10:41 | 32.81552 | 35.04141 | 59 ft | 107 kts | 339° |
| 2026-04-26 10:41 | 32.82297 | 35.03783 | 360 ft | 119 kts | 335° |
| 2026-04-26 10:41 | 32.83037 | 35.03335 | 768 ft | 120 kts | 330° |
| 2026-04-26 10:42 | 32.83692 | 35.02699 | 981 ft | 125 kts | 300° |
| 2026-04-26 10:42 | 32.83846 | 35.01663 | 1022 ft | 129 kts | 271° |
| 2026-04-26 10:42 | 32.83795 | 35.00589 | 1107 ft | 131 kts | 266° |
| 2026-04-26 10:42 | 32.83762 | 34.99484 | 1133 ft | 135 kts | 268° |
| 2026-04-26 10:43 | 32.83706 | 34.98370 | 1198 ft | 135 kts | 266° |
| 2026-04-26 10:43 | 32.83582 | 34.97242 | 1205 ft | 138 kts | 256° |
| 2026-04-26 10:43 | 32.83223 | 34.96187 | 1223 ft | 137 kts | 240° |
| 2026-04-26 10:43 | 32.82615 | 34.95297 | 1111 ft | 142 kts | 219° |
| 2026-04-26 10:44 | 32.81646 | 34.95011 | 943 ft | 144 kts | 181° |
| 2026-04-26 10:44 | 32.80717 | 34.95004 | 1220 ft | 133 kts | 181° |
| 2026-04-26 10:44 | 32.79789 | 34.95031 | 1564 ft | 133 kts | 178° |
| 2026-04-26 10:44 | 32.78863 | 34.95004 | 1902 ft | 134 kts | 185° |
| 2026-04-26 10:45 | 32.77908 | 34.94983 | 2133 ft | 142 kts | 181° |
| 2026-04-26 10:45 | 32.76889 | 34.94945 | 2261 ft | 151 kts | 179° |
| 2026-04-26 10:45 | 32.75829 | 34.94942 | 2423 ft | 152 kts | 182° |
| 2026-04-26 10:45 | 32.74779 | 34.95127 | 2513 ft | 161 kts | 161° |
| 2026-04-26 10:46 | 32.73708 | 34.95618 | 2467 ft | 170 kts | 156° |
| 2026-04-26 10:46 | 32.72610 | 34.96153 | 2452 ft | 171 kts | 165° |
| 2026-04-26 10:46 | 32.71427 | 34.96342 | 2396 ft | 173 kts | 179° |
| 2026-04-26 10:46 | 32.70232 | 34.96314 | 2331 ft | 174 kts | 181° |
| 2026-04-26 10:47 | 32.69009 | 34.96275 | 2183 ft | 176 kts | 182° |
| 2026-04-26 10:47 | 32.67803 | 34.96244 | 2127 ft | 175 kts | 182° |
| 2026-04-26 10:47 | 32.66588 | 34.96205 | 2078 ft | 175 kts | 183° |
| 2026-04-26 10:47 | 32.65381 | 34.96117 | 2055 ft | 173 kts | 186° |
| 2026-04-26 10:48 | 32.64207 | 34.95951 | 1973 ft | 162 kts | 189° |
| 2026-04-26 10:48 | 32.63120 | 34.95694 | 1795 ft | 153 kts | 195° |
| 2026-04-26 10:48 | 32.62110 | 34.95401 | 1842 ft | 151 kts | 193° |
| 2026-04-26 10:48 | 32.61033 | 34.95083 | 1906 ft | 161 kts | 194° |
| 2026-04-26 10:49 | 32.59950 | 34.94769 | 1824 ft | 158 kts | 194° |
| 2026-04-26 10:49 | 32.58907 | 34.94464 | 1886 ft | 152 kts | 195° |
| 2026-04-26 10:49 | 32.57896 | 34.94155 | 1931 ft | 149 kts | 194° |
| 2026-04-26 10:49 | 32.56889 | 34.93861 | 1932 ft | 149 kts | 194° |
| 2026-04-26 10:50 | 32.55888 | 34.93534 | 1916 ft | 149 kts | 198° |
| 2026-04-26 10:50 | 32.55248 | 34.93247 | 1908 ft | 149 kts | 204° |
| 2026-04-26 10:50 | 32.54054 | 34.92408 | 1853 ft | 152 kts | 218° |
| 2026-04-26 10:50 | 32.53222 | 34.91637 | 1786 ft | 152 kts | 219° |
| 2026-04-26 10:51 | 32.52397 | 34.90836 | 1745 ft | 154 kts | 220° |
| 2026-04-26 10:51 | 32.50760 | 34.89183 | 1557 ft | 161 kts | 219° |
| 2026-04-26 10:51 | 32.49838 | 34.88431 | 1456 ft | 159 kts | 211° |
| 2026-04-26 10:52 | 32.48824 | 34.87982 | 1431 ft | 154 kts | 194° |
| 2026-04-26 10:52 | 32.47782 | 34.87713 | 1370 ft | 153 kts | 193° |
| 2026-04-26 10:52 | 32.46749 | 34.87444 | 1317 ft | 151 kts | 192° |
| 2026-04-26 10:52 | 32.45714 | 34.87188 | 1237 ft | 152 kts | 194° |
| 2026-04-26 10:53 | 32.44684 | 34.86862 | 1120 ft | 155 kts | 197° |
| 2026-04-26 10:53 | 32.43643 | 34.86523 | 1071 ft | 160 kts | 197° |
| 2026-04-26 10:53 | 32.42523 | 34.86174 | 1149 ft | 171 kts | 194° |
| 2026-04-26 10:54 | 32.40237 | 34.85440 | 1358 ft | 177 kts | 192° |
| 2026-04-26 10:54 | 32.38974 | 34.85199 | 1242 ft | 189 kts | 185° |
| 2026-04-26 10:54 | 32.37676 | 34.85089 | 1112 ft | 181 kts | 185° |
| 2026-04-26 10:54 | 32.36452 | 34.84949 | 938 ft | 173 kts | 187° |
| 2026-04-26 10:55 | 32.35262 | 34.84788 | 717 ft | 171 kts | 188° |
| 2026-04-26 10:55 | 32.34135 | 34.84592 | 742 ft | 158 kts | 192° |
| 2026-04-26 10:55 | 32.33087 | 34.84287 | 721 ft | 153 kts | 195° |
| 2026-04-26 10:55 | 32.32414 | 34.84088 | 756 ft | 148 kts | 194° |
| 2026-04-26 10:56 | 32.31095 | 34.83722 | 796 ft | 143 kts | 193° |
| 2026-04-26 10:56 | 32.30121 | 34.83489 | 804 ft | 143 kts | 192° |
| 2026-04-26 10:56 | 32.29138 | 34.83248 | 786 ft | 145 kts | 192° |
| 2026-04-26 10:56 | 32.28170 | 34.83011 | 799 ft | 143 kts | 193° |
| 2026-04-26 10:57 | 32.27187 | 34.82773 | 776 ft | 145 kts | 193° |
| 2026-04-26 10:57 | 32.26215 | 34.82487 | 796 ft | 143 kts | 195° |
| 2026-04-26 10:57 | 32.25247 | 34.82187 | 785 ft | 144 kts | 195° |
| 2026-04-26 10:57 | 32.24279 | 34.81877 | 777 ft | 144 kts | 197° |
| 2026-04-26 10:58 | 32.23301 | 34.81536 | 702 ft | 149 kts | 194° |
| 2026-04-26 10:58 | 32.22298 | 34.81289 | 728 ft | 145 kts | 191° |
| 2026-04-26 10:58 | 32.21329 | 34.80973 | 718 ft | 145 kts | 198° |
| 2026-04-26 10:58 | 32.20689 | 34.80741 | 703 ft | 145 kts | 197° |
| 2026-04-26 10:59 | 32.19728 | 34.80427 | 739 ft | 143 kts | 197° |
| 2026-04-26 10:59 | 32.18783 | 34.80083 | 753 ft | 142 kts | 198° |
| 2026-04-26 10:59 | 32.17834 | 34.79756 | 747 ft | 143 kts | 197° |
| 2026-04-26 10:59 | 32.16873 | 34.79420 | 742 ft | 143 kts | 198° |
| 2026-04-26 11:00 | 32.15924 | 34.79070 | 738 ft | 144 kts | 198° |
| 2026-04-26 11:00 | 32.14975 | 34.78732 | 771 ft | 141 kts | 197° |
| 2026-04-26 11:00 | 32.13984 | 34.78432 | 811 ft | 152 kts | 193° |
| 2026-04-26 11:00 | 32.12911 | 34.78321 | 816 ft | 160 kts | 179° |
| 2026-04-26 11:01 | 32.11821 | 34.78433 | 956 ft | 150 kts | 173° |
| 2026-04-26 11:01 | 32.10793 | 34.78614 | 1020 ft | 145 kts | 165° |
| 2026-04-26 11:01 | 32.10139 | 34.79370 | 1171 ft | 139 kts | 106° |
| 2026-04-26 11:01 | 32.10148 | 34.80538 | 1096 ft | 146 kts | 85° |
| 2026-04-26 11:02 | 32.10195 | 34.81730 | 1125 ft | 144 kts | 89° |
| 2026-04-26 11:02 | 32.10194 | 34.82887 | 1250 ft | 136 kts | 95° |
| 2026-04-26 11:02 | 32.09763 | 34.83784 | 1416 ft | 128 kts | 147° |
| 2026-04-26 11:02 | 32.08936 | 34.84287 | 1313 ft | 142 kts | 154° |
| 2026-04-26 11:03 | 32.08020 | 34.84787 | 1240 ft | 148 kts | 156° |
| 2026-04-26 11:03 | 32.07081 | 34.85298 | 1202 ft | 150 kts | 156° |
| 2026-04-26 11:03 | 32.06128 | 34.85793 | 1177 ft | 150 kts | 157° |
| 2026-04-26 11:03 | 32.05167 | 34.86281 | 1136 ft | 151 kts | 154° |
| 2026-04-26 11:04 | 32.04281 | 34.86918 | 1133 ft | 149 kts | 142° |
| 2026-04-26 11:04 | 32.03550 | 34.87788 | 1054 ft | 148 kts | 130° |
| 2026-04-26 11:04 | 32.02933 | 34.88725 | 1103 ft | 144 kts | 127° |
| 2026-04-26 11:04 | 32.02367 | 34.89678 | 1105 ft | 143 kts | 124° |
| 2026-04-26 11:05 | 32.01840 | 34.90656 | 1030 ft | 147 kts | 122° |
| 2026-04-26 11:05 | 32.01339 | 34.91747 | 985 ft | 146 kts | 118° |
| 2026-04-26 11:05 | 32.00694 | 34.92459 | 1066 ft | 117 kts | 165° |
| 2026-04-26 11:05 | 31.99942 | 34.92347 | 983 ft | 114 kts | 208° |
| 2026-04-26 11:06 | 31.99286 | 34.91764 | 777 ft | 124 kts | 232° |
| 2026-04-26 11:06 | 31.99275 | 34.90811 | 542 ft | 129 kts | 297° |
| 2026-04-26 11:06 | 31.99736 | 34.89915 | 308 ft | 121 kts | 302° |
| 2026-04-26 11:06 | 32.00161 | 34.89117 | 127 ft | 107 kts | 301° |
| 2026-04-26 11:07 | 32.00499 | 34.88461 | 126 ft | 94 kts | 300° |
| 2026-04-26 11:07 | 32.00879 | 34.87684 | 327 ft | 118 kts | 299° |
| 2026-04-26 11:07 | 32.01330 | 34.86851 | 716 ft | 120 kts | 300° |
| 2026-04-26 11:07 | 32.01371 | 34.85912 | 1054 ft | 127 kts | 236° |
| 2026-04-26 11:08 | 32.00497 | 34.85633 | 1151 ft | 144 kts | 180° |
| 2026-04-26 11:08 | 31.99662 | 34.86016 | 1108 ft | 130 kts | 136° |
| 2026-04-26 11:08 | 31.99154 | 34.86886 | 1072 ft | 123 kts | 118° |
| 2026-04-26 11:08 | 31.98767 | 34.87754 | 1215 ft | 117 kts | 116° |
| 2026-04-26 11:09 | 31.98456 | 34.88602 | 1172 ft | 117 kts | 112° |
| 2026-04-26 11:09 | 31.98150 | 34.89496 | 1096 ft | 119 kts | 112° |
| 2026-04-26 11:09 | 31.97860 | 34.90420 | 1135 ft | 118 kts | 109° |
| 2026-04-26 11:09 | 31.97621 | 34.91334 | 1255 ft | 116 kts | 105° |
| 2026-04-26 11:10 | 31.97286 | 34.92196 | 1410 ft | 122 kts | 141° |
| 2026-04-26 11:10 | 31.96530 | 34.91973 | 1281 ft | 139 kts | 255° |
| 2026-04-26 11:10 | 31.97055 | 34.91291 | 1362 ft | 141 kts | 24° |
| 2026-04-26 11:10 | 31.97101 | 34.92350 | 1359 ft | 146 kts | 118° |
| 2026-04-26 11:11 | 31.96634 | 34.93374 | 1336 ft | 141 kts | 116° |
| 2026-04-26 11:11 | 31.96232 | 34.94426 | 1203 ft | 139 kts | 113° |
| 2026-04-26 11:11 | 31.95863 | 34.95476 | 1115 ft | 136 kts | 112° |
| 2026-04-26 11:11 | 31.95531 | 34.96490 | 1079 ft | 131 kts | 111° |
| 2026-04-26 11:12 | 31.95223 | 34.97472 | 1101 ft | 125 kts | 109° |
| 2026-04-26 11:12 | 31.95053 | 34.98459 | 1203 ft | 128 kts | 81° |
| 2026-04-26 11:12 | 31.95643 | 34.99040 | 1247 ft | 127 kts | 327° |
| 2026-04-26 11:12 | 31.95849 | 34.97997 | 1073 ft | 141 kts | 274° |
| 2026-04-26 11:13 | 31.95945 | 34.96854 | 1104 ft | 139 kts | 284° |
| 2026-04-26 11:13 | 31.96495 | 34.95922 | 1068 ft | 143 kts | 320° |
| 2026-04-26 11:13 | 31.97141 | 34.95096 | 976 ft | 129 kts | 299° |
| 2026-04-26 11:13 | 31.97515 | 34.94168 | 957 ft | 124 kts | 294° |
| 2026-04-26 11:14 | 31.97918 | 34.93272 | 907 ft | 127 kts | 300° |
| 2026-04-26 11:14 | 31.98409 | 34.92394 | 825 ft | 129 kts | 307° |
| 2026-04-26 11:14 | 31.98911 | 34.91509 | 701 ft | 126 kts | 299° |
| 2026-04-26 11:14 | 31.99341 | 34.90710 | 434 ft | 117 kts | 302° |
| 2026-04-26 11:15 | 31.99744 | 34.89920 | 252 ft | 107 kts | 301° |
| 2026-04-26 11:15 | 32.00111 | 34.89210 | 132 ft | 97 kts | 301° |
| 2026-04-26 11:15 | 32.00429 | 34.88600 | 140 ft | 95 kts | 300° |
| 2026-04-26 11:15 | 32.00786 | 34.87850 | 384 ft | 112 kts | 299° |
| 2026-04-26 11:16 | 32.01203 | 34.86972 | 540 ft | 131 kts | 298° |
| 2026-04-26 11:16 | 32.01513 | 34.85973 | 870 ft | 131 kts | 266° |
| 2026-04-26 11:16 | 32.00938 | 34.85159 | 1099 ft | 138 kts | 217° |
| 2026-04-26 11:16 | 32.00044 | 34.84706 | 1275 ft | 143 kts | 177° |
| 2026-04-26 11:17 | 31.99244 | 34.85363 | 1284 ft | 161 kts | 124° |
| 2026-04-26 11:17 | 31.98652 | 34.86511 | 1262 ft | 166 kts | 120° |
| 2026-04-26 11:17 | 31.98124 | 34.87739 | 1206 ft | 169 kts | 116° |
| 2026-04-26 11:17 | 31.97644 | 34.88985 | 1217 ft | 168 kts | 112° |
| 2026-04-26 11:18 | 31.97249 | 34.90288 | 1162 ft | 171 kts | 107° |
| 2026-04-26 11:18 | 31.97232 | 34.91587 | 1265 ft | 153 kts | 64° |
| 2026-04-26 11:18 | 31.98013 | 34.92223 | 1262 ft | 140 kts | 9° |
| 2026-04-26 11:18 | 31.98880 | 34.91845 | 874 ft | 129 kts | 301° |
| 2026-04-26 11:19 | 31.99241 | 34.90925 | 639 ft | 120 kts | 297° |
| 2026-04-26 11:19 | 31.99674 | 34.90065 | 383 ft | 123 kts | 302° |
| 2026-04-26 11:19 | 32.00080 | 34.89275 | 154 ft | 103 kts | 300° |
| 2026-04-26 11:19 | 32.00404 | 34.88648 | 115 ft | 81 kts | 301° |
| 2026-04-26 11:20 | 32.00772 | 34.87918 | 262 ft | 108 kts | 300° |
| 2026-04-26 11:20 | 32.01043 | 34.87385 | 472 ft | 124 kts | 300° |
| 2026-04-26 11:20 | 32.01592 | 34.86123 | 947 ft | 140 kts | 289° |
| 2026-04-26 11:20 | 32.01607 | 34.84946 | 1228 ft | 152 kts | 251° |
| 2026-04-26 11:21 | 32.00890 | 34.84047 | 1482 ft | 160 kts | 210° |
| 2026-04-26 11:21 | 31.99840 | 34.83407 | 1511 ft | 178 kts | 206° |
| 2026-04-26 11:21 | 31.98803 | 34.82610 | 1537 ft | 185 kts | 225° |
| 2026-04-26 11:21 | 31.98033 | 34.81346 | 1413 ft | 194 kts | 242° |
| 2026-04-26 11:22 | 31.97416 | 34.79915 | 1354 ft | 194 kts | 241° |
| 2026-04-26 11:22 | 31.96596 | 34.78791 | 1183 ft | 175 kts | 215° |
| 2026-04-26 11:22 | 31.95501 | 34.78407 | 1031 ft | 162 kts | 181° |
| 2026-04-26 11:22 | 31.94438 | 34.78254 | 1019 ft | 147 kts | 195° |
| 2026-04-26 11:23 | 31.93510 | 34.77787 | 909 ft | 145 kts | 207° |
| 2026-04-26 11:23 | 31.92609 | 34.77305 | 871 ft | 140 kts | 203° |
| 2026-04-26 11:23 | 31.91725 | 34.76880 | 852 ft | 136 kts | 203° |
| 2026-04-26 11:23 | 31.90835 | 34.76506 | 801 ft | 135 kts | 200° |
| 2026-04-26 11:24 | 31.89952 | 34.76134 | 727 ft | 135 kts | 195° |
| 2026-04-26 11:24 | 31.89039 | 34.76148 | 725 ft | 131 kts | 175° |
| 2026-04-26 11:24 | 31.88147 | 34.76184 | 746 ft | 127 kts | 188° |
| 2026-04-26 11:24 | 31.87347 | 34.75797 | 733 ft | 126 kts | 213° |
| 2026-04-26 11:25 | 31.86669 | 34.75158 | 750 ft | 124 kts | 224° |
| 2026-04-26 11:25 | 31.86084 | 34.74436 | 803 ft | 120 kts | 228° |
| 2026-04-26 11:25 | 31.85546 | 34.73704 | 868 ft | 117 kts | 232° |
| 2026-04-26 11:25 | 31.85054 | 34.72957 | 925 ft | 115 kts | 233° |
| 2026-04-26 11:26 | 31.84620 | 34.72184 | 957 ft | 115 kts | 249° |
| 2026-04-26 11:26 | 31.84571 | 34.71245 | 934 ft | 118 kts | 280° |
| 2026-04-26 11:26 | 31.84755 | 34.70300 | 924 ft | 121 kts | 280° |
| 2026-04-26 11:26 | 31.84913 | 34.69322 | 939 ft | 120 kts | 281° |
| 2026-04-26 11:27 | 31.85042 | 34.68351 | 911 ft | 123 kts | 279° |
| 2026-04-26 11:27 | 31.85199 | 34.67371 | 942 ft | 119 kts | 282° |
| 2026-04-26 11:27 | 31.85373 | 34.66409 | 861 ft | 126 kts | 282° |
| 2026-04-26 11:27 | 31.85533 | 34.65398 | 861 ft | 125 kts | 270° |
| 2026-04-26 11:28 | 31.85340 | 34.64441 | 918 ft | 120 kts | 242° |
| 2026-04-26 11:28 | 31.84716 | 34.63808 | 858 ft | 125 kts | 198° |
| 2026-04-26 11:28 | 31.83865 | 34.63487 | 778 ft | 130 kts | 198° |
| 2026-04-26 11:28 | 31.83001 | 34.63169 | 808 ft | 131 kts | 199° |
| 2026-04-26 11:29 | 31.82096 | 34.62824 | 982 ft | 147 kts | 199° |
| 2026-04-26 11:29 | 31.81060 | 34.62438 | 1112 ft | 164 kts | 199° |
| 2026-04-26 11:29 | 31.79955 | 34.61981 | 1227 ft | 174 kts | 201° |
| 2026-04-26 11:29 | 31.78798 | 34.61371 | 1129 ft | 188 kts | 206° |
| 2026-04-26 11:30 | 31.77592 | 34.60718 | 1075 ft | 192 kts | 204° |
| 2026-04-26 11:30 | 31.76811 | 34.60319 | 1093 ft | 175 kts | 204° |
| 2026-04-26 11:30 | 31.75480 | 34.59563 | 1207 ft | 147 kts | 208° |
| 2026-04-26 11:30 | 31.74601 | 34.59000 | 1193 ft | 147 kts | 209° |
| 2026-04-26 11:31 | 31.73630 | 34.58452 | 851 ft | 164 kts | 202° |
| 2026-04-26 11:31 | 31.72600 | 34.57954 | 819 ft | 156 kts | 204° |
| 2026-04-26 11:31 | 31.71626 | 34.57424 | 811 ft | 150 kts | 207° |
| 2026-04-26 11:31 | 31.70725 | 34.56804 | 758 ft | 159 kts | 213° |
| 2026-04-26 11:32 | 31.69747 | 34.56094 | 870 ft | 171 kts | 211° |
| 2026-04-26 11:32 | 31.68689 | 34.55347 | 856 ft | 182 kts | 212° |
| 2026-04-26 11:32 | 31.67610 | 34.54555 | 973 ft | 182 kts | 213° |
| 2026-04-26 11:32 | 31.66544 | 34.53732 | 1004 ft | 186 kts | 214° |
| 2026-04-26 11:33 | 31.65470 | 34.52851 | 1012 ft | 189 kts | 216° |
| 2026-04-26 11:33 | 31.64388 | 34.51968 | 966 ft | 193 kts | 214° |
| 2026-04-26 11:33 | 31.63231 | 34.51114 | 859 ft | 194 kts | 204° |
| 2026-04-26 11:33 | 31.62031 | 34.51284 | 1164 ft | 179 kts | 140° |
| 2026-04-26 11:34 | 31.61272 | 34.52459 | 1232 ft | 185 kts | 114° |
| 2026-04-26 11:34 | 31.60797 | 34.53751 | 1434 ft | 162 kts | 115° |
| 2026-04-26 11:34 | 31.60321 | 34.54936 | 1499 ft | 161 kts | 116° |
| 2026-04-26 11:34 | 31.59749 | 34.56074 | 1491 ft | 163 kts | 127° |
| 2026-04-26 11:35 | 31.58979 | 34.57044 | 1476 ft | 164 kts | 137° |
| 2026-04-26 11:35 | 31.58136 | 34.57954 | 1447 ft | 165 kts | 137° |
| 2026-04-26 11:35 | 31.57325 | 34.58879 | 1541 ft | 160 kts | 135° |
| 2026-04-26 11:35 | 31.56833 | 34.59533 | 1607 ft | 158 kts | 124° |
| 2026-04-26 11:36 | 31.56096 | 34.61066 | 1531 ft | 164 kts | 120° |
| 2026-04-26 11:36 | 31.55380 | 34.62102 | 1534 ft | 164 kts | 139° |
| 2026-04-26 11:36 | 31.54509 | 34.62945 | 1607 ft | 159 kts | 142° |
| 2026-04-26 11:36 | 31.53652 | 34.63761 | 1617 ft | 162 kts | 143° |
| 2026-04-26 11:37 | 31.52749 | 34.64543 | 1704 ft | 158 kts | 138° |
| 2026-04-26 11:37 | 31.52057 | 34.65580 | 1646 ft | 164 kts | 125° |
| 2026-04-26 11:37 | 31.51454 | 34.66699 | 1677 ft | 163 kts | 120° |
| 2026-04-26 11:37 | 31.50919 | 34.67872 | 1649 ft | 165 kts | 118° |
| 2026-04-26 11:38 | 31.50320 | 34.68988 | 1668 ft | 163 kts | 129° |
| 2026-04-26 11:38 | 31.49564 | 34.69965 | 1774 ft | 157 kts | 131° |
| 2026-04-26 11:38 | 31.48869 | 34.70944 | 2136 ft | 159 kts | 127° |
| 2026-04-26 11:38 | 31.48215 | 34.72058 | 2291 ft | 171 kts | 123° |
| 2026-04-26 11:39 | 31.47551 | 34.73249 | 2488 ft | 176 kts | 123° |
| 2026-04-26 11:39 | 31.46872 | 34.74444 | 2662 ft | 181 kts | 125° |
| 2026-04-26 11:39 | 31.46106 | 34.75628 | 2814 ft | 183 kts | 136° |
| 2026-04-26 11:39 | 31.45011 | 34.76425 | 2898 ft | 184 kts | 158° |
| 2026-04-26 11:40 | 31.43801 | 34.76980 | 2961 ft | 190 kts | 160° |
| 2026-04-26 11:40 | 31.42539 | 34.77511 | 2975 ft | 194 kts | 162° |
| 2026-04-26 11:40 | 31.41253 | 34.77965 | 3037 ft | 194 kts | 165° |
| 2026-04-26 11:40 | 31.39952 | 34.78394 | 3087 ft | 194 kts | 165° |
| 2026-04-26 11:41 | 31.38640 | 34.78776 | 3103 ft | 195 kts | 169° |
| 2026-04-26 11:42 | 31.29243 | 34.80072 | 2941 ft | 200 kts | 141° |
| 2026-04-26 11:43 | 31.28195 | 34.81138 | 2905 ft | 201 kts | 140° |
| 2026-04-26 11:43 | 31.27053 | 34.82078 | 2816 ft | 202 kts | 152° |
| 2026-04-26 11:43 | 31.25771 | 34.82661 | 2922 ft | 194 kts | 165° |
| 2026-04-26 11:43 | 31.24444 | 34.82891 | 2954 ft | 194 kts | 175° |
| 2026-04-26 11:44 | 31.23541 | 34.82973 | 2931 ft | 196 kts | 177° |
| 2026-04-26 11:44 | 31.22188 | 34.83035 | 2993 ft | 195 kts | 182° |
| 2026-04-26 11:44 | 31.20939 | 34.82523 | 3038 ft | 193 kts | 218° |
| 2026-04-26 11:44 | 31.19972 | 34.81384 | 2845 ft | 201 kts | 225° |
| 2026-04-26 11:45 | 31.18359 | 34.80413 | 2660 ft | 206 kts | 185° |
| 2026-04-26 11:45 | 31.16966 | 34.80511 | 2846 ft | 192 kts | 176° |
| 2026-04-26 11:45 | 31.16069 | 34.80570 | 2895 ft | 193 kts | 179° |
| 2026-04-26 11:45 | 31.14266 | 34.80648 | 2838 ft | 197 kts | 177° |
| 2026-04-26 11:46 | 31.13351 | 34.80728 | 2900 ft | 195 kts | 174° |
| 2026-04-26 11:46 | 31.12063 | 34.81118 | 2920 ft | 196 kts | 158° |
| 2026-04-26 11:46 | 31.10845 | 34.81867 | 2897 ft | 197 kts | 149° |
| 2026-04-26 11:46 | 31.09682 | 34.82719 | 2981 ft | 195 kts | 148° |
| 2026-04-26 11:47 | 31.08519 | 34.83564 | 2936 ft | 198 kts | 149° |
| 2026-04-26 11:47 | 31.07329 | 34.84310 | 2993 ft | 195 kts | 155° |
| 2026-04-26 11:47 | 31.06188 | 34.84956 | 3509 ft | 162 kts | 155° |
| 2026-04-26 11:47 | 31.05101 | 34.85573 | 3547 ft | 178 kts | 155° |
| 2026-04-26 11:48 | 31.03981 | 34.86198 | 3792 ft | 176 kts | 152° |
| 2026-04-26 11:48 | 31.02933 | 34.86983 | 3889 ft | 186 kts | 141° |
| 2026-04-26 11:48 | 31.01991 | 34.88047 | 3915 ft | 192 kts | 133° |
| 2026-04-26 11:48 | 31.01053 | 34.89189 | 3896 ft | 198 kts | 136° |
| 2026-04-26 11:49 | 30.99921 | 34.90133 | 3821 ft | 200 kts | 158° |
| 2026-04-26 11:49 | 30.98553 | 34.90315 | 3730 ft | 203 kts | 191° |
| 2026-04-26 11:49 | 30.97243 | 34.89696 | 3618 ft | 204 kts | 210° |
| 2026-04-26 11:49 | 30.96061 | 34.88784 | 3471 ft | 206 kts | 218° |
| 2026-04-26 11:50 | 30.94993 | 34.87687 | 3467 ft | 200 kts | 222° |
| 2026-04-26 11:50 | 30.93972 | 34.86620 | 3608 ft | 192 kts | 222° |
| 2026-04-26 11:50 | 30.92945 | 34.85626 | 3636 ft | 195 kts | 218° |
| 2026-04-26 11:50 | 30.91878 | 34.84638 | 3638 ft | 195 kts | 220° |
| 2026-04-26 11:51 | 30.90886 | 34.83606 | 3671 ft | 195 kts | 224° |
| 2026-04-26 11:51 | 30.89919 | 34.82472 | 3642 ft | 196 kts | 228° |
| 2026-04-26 11:51 | 30.89018 | 34.81241 | 3502 ft | 201 kts | 230° |
| 2026-04-26 11:51 | 30.88118 | 34.80005 | 3572 ft | 194 kts | 232° |
| 2026-04-26 11:52 | 30.87266 | 34.78766 | 3539 ft | 198 kts | 229° |
| 2026-04-26 11:52 | 30.86331 | 34.77591 | 3562 ft | 196 kts | 227° |
| 2026-04-26 11:52 | 30.85439 | 34.76387 | 3537 ft | 197 kts | 232° |
| 2026-04-26 11:52 | 30.84601 | 34.75150 | 3690 ft | 191 kts | 232° |
| 2026-04-26 11:53 | 30.83658 | 34.74084 | 3752 ft | 190 kts | 204° |
| 2026-04-26 11:53 | 30.82279 | 34.74050 | 3265 ft | 213 kts | 158° |
| 2026-04-26 11:53 | 30.81119 | 34.74991 | 3452 ft | 199 kts | 141° |
| 2026-04-26 11:54 | 30.78847 | 34.76731 | 3538 ft | 198 kts | 162° |
| 2026-04-26 11:54 | 30.77450 | 34.76832 | 3436 ft | 197 kts | 187° |
| 2026-04-26 11:54 | 30.76116 | 34.76757 | 3551 ft | 195 kts | 178° |
| 2026-04-26 11:54 | 30.74775 | 34.76940 | 3614 ft | 193 kts | 171° |
| 2026-04-26 11:55 | 30.73455 | 34.77208 | 3686 ft | 194 kts | 170° |
| 2026-04-26 11:55 | 30.72120 | 34.77553 | 3676 ft | 197 kts | 168° |
| 2026-04-26 11:55 | 30.70796 | 34.77883 | 3784 ft | 193 kts | 166° |
| 2026-04-26 11:55 | 30.69480 | 34.78345 | 3688 ft | 200 kts | 163° |
| 2026-04-26 11:56 | 30.68168 | 34.78814 | 3795 ft | 196 kts | 162° |
| 2026-04-26 11:56 | 30.66875 | 34.79295 | 3841 ft | 196 kts | 162° |
| 2026-04-26 11:56 | 30.65731 | 34.80157 | 3638 ft | 205 kts | 128° |
| 2026-04-26 11:56 | 30.64932 | 34.81488 | 3607 ft | 202 kts | 143° |
| 2026-04-26 11:57 | 30.63587 | 34.81881 | 3473 ft | 202 kts | 185° |
| 2026-04-26 11:57 | 30.62198 | 34.81661 | 3392 ft | 202 kts | 191° |
| 2026-04-26 11:57 | 30.60824 | 34.81270 | 3117 ft | 211 kts | 195° |
| 2026-04-26 11:57 | 30.59420 | 34.81203 | 3224 ft | 199 kts | 188° |
| 2026-04-26 11:58 | 30.58081 | 34.81334 | 3205 ft | 200 kts | 157° |
| 2026-04-26 11:58 | 30.57174 | 34.82502 | 3256 ft | 196 kts | 120° |
| 2026-04-26 11:58 | 30.56477 | 34.83848 | 3260 ft | 199 kts | 120° |
| 2026-04-26 11:58 | 30.56039 | 34.85371 | 3287 ft | 197 kts | 99° |
| 2026-04-26 11:59 | 30.55965 | 34.86969 | 3294 ft | 198 kts | 89° |
| 2026-04-26 11:59 | 30.55884 | 34.88562 | 3349 ft | 196 kts | 99° |
| 2026-04-26 11:59 | 30.55437 | 34.90045 | 3358 ft | 198 kts | 116° |
| 2026-04-26 11:59 | 30.54769 | 34.91429 | 3429 ft | 195 kts | 126° |
| 2026-04-26 12:00 | 30.53735 | 34.92453 | 3331 ft | 201 kts | 155° |
| 2026-04-26 12:00 | 30.52384 | 34.92846 | 3320 ft | 198 kts | 174° |
| 2026-04-26 12:00 | 30.50998 | 34.92799 | 3310 ft | 196 kts | 191° |
| 2026-04-26 12:00 | 30.49621 | 34.92693 | 3259 ft | 199 kts | 176° |
| 2026-04-26 12:01 | 30.48212 | 34.93033 | 2804 ft | 215 kts | 166° |
| 2026-04-26 12:01 | 30.46765 | 34.93375 | 2675 ft | 209 kts | 170° |
| 2026-04-26 12:01 | 30.45362 | 34.93649 | 2714 ft | 201 kts | 171° |
| 2026-04-26 12:01 | 30.43993 | 34.93904 | 2749 ft | 197 kts | 171° |
| 2026-04-26 12:02 | 30.42678 | 34.94156 | 2803 ft | 196 kts | 172° |
| 2026-04-26 12:02 | 30.41345 | 34.94401 | 2932 ft | 191 kts | 169° |
| 2026-04-26 12:02 | 30.40031 | 34.94702 | 2936 ft | 194 kts | 170° |
| 2026-04-26 12:02 | 30.38696 | 34.94904 | 3016 ft | 191 kts | 175° |
| 2026-04-26 12:03 | 30.37380 | 34.95141 | 3038 ft | 194 kts | 169° |
| 2026-04-26 12:03 | 30.36041 | 34.95420 | 3028 ft | 196 kts | 174° |
| 2026-04-26 12:03 | 30.34688 | 34.95375 | 3087 ft | 194 kts | 187° |
| 2026-04-26 12:03 | 30.33329 | 34.95469 | 3031 ft | 199 kts | 167° |
| 2026-04-26 12:04 | 30.32042 | 34.95949 | 3204 ft | 192 kts | 160° |
| 2026-04-26 12:04 | 30.30840 | 34.96730 | 3068 ft | 200 kts | 143° |
| 2026-04-26 12:04 | 30.29810 | 34.97792 | 3115 ft | 197 kts | 135° |
| 2026-04-26 12:04 | 30.28915 | 34.99012 | 3082 ft | 199 kts | 128° |
| 2026-04-26 12:05 | 30.28132 | 35.00338 | 2977 ft | 202 kts | 115° |
| 2026-04-26 12:05 | 30.27773 | 35.01908 | 2644 ft | 210 kts | 97° |
| 2026-04-26 12:05 | 30.27663 | 35.03531 | 2783 ft | 198 kts | 93° |
| 2026-04-26 12:05 | 30.27699 | 35.05150 | 2699 ft | 198 kts | 84° |
| 2026-04-26 12:06 | 30.27974 | 35.06685 | 2796 ft | 194 kts | 75° |
| 2026-04-26 12:06 | 30.28316 | 35.08237 | 2666 ft | 201 kts | 80° |
| 2026-04-26 12:06 | 30.28133 | 35.09796 | 2678 ft | 199 kts | 117° |
| 2026-04-26 12:06 | 30.27098 | 35.10805 | 2539 ft | 202 kts | 164° |
| 2026-04-26 12:07 | 30.25719 | 35.10922 | 2573 ft | 196 kts | 179° |
| 2026-04-26 12:07 | 30.24370 | 35.11127 | 2650 ft | 193 kts | 171° |
| 2026-04-26 12:07 | 30.23031 | 35.11478 | 2603 ft | 196 kts | 165° |
| 2026-04-26 12:07 | 30.21727 | 35.11954 | 2582 ft | 197 kts | 164° |
| 2026-04-26 12:08 | 30.20411 | 35.12283 | 2694 ft | 193 kts | 173° |
| 2026-04-26 12:08 | 30.19060 | 35.12407 | 2641 ft | 198 kts | 177° |
| 2026-04-26 12:08 | 30.17693 | 35.12526 | 2651 ft | 198 kts | 173° |
| 2026-04-26 12:08 | 30.16320 | 35.12692 | 2587 ft | 200 kts | 175° |
| 2026-04-26 12:09 | 30.14925 | 35.12839 | 2481 ft | 203 kts | 174° |
| 2026-04-26 12:09 | 30.13526 | 35.12947 | 2450 ft | 200 kts | 179° |
| 2026-04-26 12:09 | 30.12204 | 35.12886 | 2664 ft | 188 kts | 186° |
| 2026-04-26 12:09 | 30.10902 | 35.12680 | 2693 ft | 192 kts | 191° |
| 2026-04-26 12:10 | 30.09583 | 35.12315 | 2642 ft | 196 kts | 198° |
| 2026-04-26 12:10 | 30.08306 | 35.11830 | 2723 ft | 193 kts | 198° |
| 2026-04-26 12:10 | 30.07026 | 35.11311 | 2667 ft | 197 kts | 202° |
| 2026-04-26 12:10 | 30.05749 | 35.10715 | 2603 ft | 198 kts | 202° |
| 2026-04-26 12:11 | 30.04446 | 35.10136 | 2454 ft | 202 kts | 200° |
| 2026-04-26 12:11 | 30.03120 | 35.09619 | 2478 ft | 198 kts | 199° |
| 2026-04-26 12:11 | 30.01826 | 35.09110 | 2491 ft | 192 kts | 194° |
| 2026-04-26 12:11 | 30.00621 | 35.08452 | 2501 ft | 192 kts | 212° |
| 2026-04-26 12:12 | 29.99483 | 35.07663 | 2585 ft | 192 kts | 211° |
| 2026-04-26 12:12 | 29.98269 | 35.06998 | 2509 ft | 197 kts | 195° |
| 2026-04-26 12:12 | 29.96922 | 35.06744 | 2513 ft | 195 kts | 188° |
| 2026-04-26 12:12 | 29.96043 | 35.06591 | 2596 ft | 192 kts | 189° |
| 2026-04-26 12:13 | 29.94295 | 35.06145 | 2660 ft | 192 kts | 198° |
| 2026-04-26 12:13 | 29.93003 | 35.05765 | 2626 ft | 196 kts | 192° |
| 2026-04-26 12:13 | 29.91681 | 35.05429 | 2692 ft | 193 kts | 195° |
| 2026-04-26 12:13 | 29.90413 | 35.04982 | 2835 ft | 189 kts | 199° |
| 2026-04-26 12:14 | 29.89166 | 35.04459 | 2860 ft | 193 kts | 201° |
| 2026-04-26 12:14 | 29.87914 | 35.03913 | 2956 ft | 190 kts | 202° |
| 2026-04-26 12:14 | 29.86664 | 35.03394 | 2917 ft | 196 kts | 194° |
| 2026-04-26 12:14 | 29.85313 | 35.03115 | 2882 ft | 198 kts | 188° |
| 2026-04-26 12:15 | 29.83913 | 35.02915 | 2671 ft | 205 kts | 187° |
| 2026-04-26 12:15 | 29.82527 | 35.02650 | 2716 ft | 198 kts | 191° |
| 2026-04-26 12:15 | 29.81172 | 35.02375 | 2718 ft | 197 kts | 190° |
| 2026-04-26 12:15 | 29.79813 | 35.02103 | 2623 ft | 202 kts | 190° |
| 2026-04-26 12:16 | 29.78437 | 35.01820 | 2575 ft | 195 kts | 194° |
| 2026-04-26 12:16 | 29.77106 | 35.01497 | 2589 ft | 195 kts | 192° |
| 2026-04-26 12:16 | 29.75790 | 35.01147 | 2652 ft | 194 kts | 197° |
| 2026-04-26 12:16 | 29.74498 | 35.00649 | 2587 ft | 198 kts | 194° |
| 2026-04-26 12:17 | 29.73149 | 35.00288 | 2540 ft | 198 kts | 194° |
| 2026-04-26 12:17 | 29.71781 | 34.99881 | 2166 ft | 211 kts | 196° |
| 2026-04-26 12:17 | 29.70420 | 34.99399 | 2288 ft | 195 kts | 194° |
| 2026-04-26 12:17 | 29.69083 | 34.99225 | 2308 ft | 192 kts | 186° |
| 2026-04-26 12:18 | 29.67728 | 34.99065 | 2053 ft | 203 kts | 191° |
| 2026-04-26 12:18 | 29.66356 | 34.98786 | 2147 ft | 195 kts | 189° |
| 2026-04-26 12:18 | 29.65037 | 34.98541 | 2272 ft | 191 kts | 191° |
| 2026-04-26 12:18 | 29.63726 | 34.98211 | 2293 ft | 192 kts | 192° |
| 2026-04-26 12:19 | 29.62412 | 34.97906 | 2293 ft | 195 kts | 193° |
| 2026-04-26 12:19 | 29.61091 | 34.97533 | 2273 ft | 196 kts | 195° |
| 2026-04-26 12:19 | 29.59784 | 34.97102 | 2283 ft | 195 kts | 197° |
| 2026-04-26 12:19 | 29.58480 | 34.96689 | 2323 ft | 194 kts | 195° |
| 2026-04-26 12:20 | 29.57195 | 34.96171 | 2264 ft | 195 kts | 194° |
| 2026-04-26 12:20 | 29.56233 | 34.96775 | 2209 ft | 173 kts | 94° |
| 2026-04-26 12:20 | 29.56995 | 34.97513 | 2048 ft | 159 kts | 0° |
| 2026-04-26 12:20 | 29.58166 | 34.97569 | 2043 ft | 151 kts | 8° |
| 2026-04-26 12:21 | 29.59184 | 34.97790 | 2404 ft | 158 kts | 12° |
| 2026-04-26 12:21 | 29.60300 | 34.98060 | 2636 ft | 167 kts | 11° |
| 2026-04-26 12:21 | 29.61490 | 34.98308 | 2670 ft | 181 kts | 8° |
| 2026-04-26 12:21 | 29.62802 | 34.98567 | 2465 ft | 196 kts | 8° |
| 2026-04-26 12:22 | 29.64131 | 34.98771 | 2517 ft | 193 kts | 6° |
| 2026-04-26 12:22 | 29.65477 | 34.98866 | 2532 ft | 193 kts | 0° |
| 2026-04-26 12:22 | 29.66826 | 34.98882 | 2552 ft | 196 kts | 1° |
| 2026-04-26 12:22 | 29.68184 | 34.99074 | 2525 ft | 197 kts | 11° |
| 2026-04-26 12:23 | 29.69541 | 34.99435 | 2346 ft | 204 kts | 14° |
| 2026-04-26 12:23 | 29.70919 | 34.99854 | 2187 ft | 206 kts | 13° |
| 2026-04-26 12:23 | 29.72281 | 35.00229 | 1952 ft | 188 kts | 12° |
| 2026-04-26 12:23 | 29.73476 | 35.00567 | 1488 ft | 164 kts | 15° |
| 2026-04-26 12:24 | 29.74477 | 35.00912 | 1298 ft | 140 kts | 15° |
| 2026-04-26 12:24 | 29.75252 | 35.01387 | 1029 ft | 123 kts | 70° |
| 2026-04-26 12:24 | 29.74798 | 35.01879 | 586 ft | 103 kts | 189° |
| 2026-04-26 12:25 | 29.73559 | 35.01637 | 252 ft | 63 kts | 193° |
| 2026-04-26 12:25 | 29.73206 | 35.01543 | 252 ft | 44 kts | 194° |
| 2026-04-26 12:25 | 29.72940 | 35.01471 | 252 ft | 36 kts | 194° |
| 2026-04-26 12:25 | 29.72711 | 35.01406 | 254 ft | 35 kts | 193° |
| 2026-04-26 12:26 | 29.72425 | 35.01322 | 256 ft | 39 kts | 195° |
| 2026-04-26 12:26 | 29.72239 | 35.01264 | 259 ft | 13 kts | 212° |
| 2026-04-26 12:26 | 29.72214 | 35.01145 | 252 ft | 21 kts | 279° |
| 2026-04-26 12:26 | 29.72219 | 35.01008 | 247 ft | 16 kts | 272° |
| 2026-04-26 12:27 | 29.72242 | 35.00882 | 246 ft | 17 kts | 285° |
| 2026-04-26 12:27 | 29.72205 | 35.00810 | 246 ft | 12 kts | 192° |
| 2026-04-26 12:27 | 29.72122 | 35.00785 | 246 ft | 12 kts | 205° |
| 2026-04-26 12:27 | 29.72087 | 35.00774 | 246 ft | 0 kts | 192° |